createdAt,value
2018-08-28T00:02:02.608Z,101967.59
2018-08-28T00:04:31.284Z,101971.53
2018-08-28T00:06:59.979Z,101963.25
2018-08-28T00:09:28.692Z,101962.33
2018-08-28T00:11:57.389Z,101963.19
2018-08-28T00:14:26.522Z,101957.99
2018-08-28T00:16:55.208Z,101953.49
2018-08-28T00:19:23.917Z,101949.55
2018-08-28T00:21:52.648Z,101948.63
2018-08-28T00:24:21.332Z,101955.20
2018-08-28T00:26:50.020Z,101948.23
2018-08-28T00:29:18.738Z,101944.30
2018-08-28T00:31:47.414Z,101942.98
2018-08-28T00:34:16.128Z,101945.24
2018-08-28T00:36:44.922Z,101939.03
2018-08-28T00:39:13.632Z,101936.04
2018-08-28T00:41:42.913Z,101938.67
2018-08-28T00:44:11.574Z,101941.30
2018-08-28T00:46:40.249Z,101934.33
2018-08-28T00:49:08.924Z,101938.27
2018-08-28T00:51:37.601Z,101934.73
2018-08-28T00:54:06.332Z,101937.36
2018-08-28T00:56:35.050Z,101928.61
2018-08-28T00:59:03.827Z,101923.81
2018-08-28T01:01:32.524Z,101918.19
2018-08-28T01:04:01.382Z,101914.31
2018-08-28T01:06:30.139Z,101914.77
2018-08-28T01:08:58.808Z,101922.66
2018-08-28T01:11:27.512Z,101914.41
2018-08-28T01:13:56.192Z,101914.31
2018-08-28T01:16:24.871Z,101917.09
2018-08-28T01:18:53.547Z,101913.09
2018-08-28T01:21:22.251Z,101914.01
2018-08-28T01:23:50.957Z,101910.06
2018-08-28T01:26:19.656Z,101908.29
2018-08-28T01:28:48.344Z,101904.34
2018-08-28T01:31:17.053Z,101900.01
2018-08-28T01:33:45.991Z,101904.80
2018-08-28T01:36:14.687Z,101904.80
2018-08-28T01:38:43.367Z,101907.99
2018-08-28T01:41:12.072Z,101904.50
2018-08-28T01:43:40.743Z,101901.97
2018-08-28T01:46:09.447Z,101903.28
2018-08-28T01:48:38.127Z,101904.60
2018-08-28T01:51:06.806Z,101902.59
2018-08-28T01:53:35.540Z,101899.56
2018-08-28T01:56:04.977Z,101901.34
2018-08-28T01:58:33.671Z,101900.52
2018-08-28T02:01:02.395Z,101899.66
2018-08-28T02:03:31.387Z,101897.03
2018-08-28T02:06:00.069Z,101903.20
2018-08-28T02:08:28.737Z,101892.69
2018-08-28T02:10:59.748Z,101887.44
2018-08-28T02:13:28.484Z,101886.67
2018-08-28T02:15:57.143Z,101890.16
2018-08-28T02:18:25.819Z,101887.13
2018-08-28T02:20:54.453Z,101885.36
2018-08-28T02:23:23.176Z,101885.36
2018-08-28T02:25:51.837Z,101901.59
2018-08-28T02:28:20.513Z,101898.56
2018-08-28T02:30:49.181Z,101890.77
2018-08-28T02:33:17.865Z,101895.11
2018-08-28T02:35:46.565Z,101901.68
2018-08-28T02:38:15.212Z,101899.12
2018-08-28T02:40:44.405Z,101893.00
2018-08-28T02:43:13.085Z,101886.98
2018-08-28T02:45:42.145Z,101885.67
2018-08-28T02:48:10.837Z,101887.84
2018-08-28T02:50:39.501Z,101879.20
2018-08-28T02:53:08.248Z,101874.86
2018-08-28T02:55:36.912Z,101877.09
2018-08-28T02:58:05.618Z,101875.41
2018-08-28T03:00:34.361Z,101879.36
2018-08-28T03:03:03.154Z,101882.90
2018-08-28T03:05:31.748Z,101886.94
2018-08-28T03:08:00.439Z,101873.00
2018-08-28T03:10:29.151Z,101878.75
2018-08-28T03:12:57.831Z,101880.52
2018-08-28T03:15:26.577Z,101882.75
2018-08-28T03:17:55.244Z,101888.01
2018-08-28T03:20:23.940Z,101889.88
2018-08-28T03:22:52.627Z,101894.73
2018-08-28T03:25:21.309Z,101889.97
2018-08-28T03:27:50.036Z,101887.06
2018-08-28T03:30:18.712Z,101877.56
2018-08-28T03:32:47.367Z,101883.73
2018-08-28T03:35:16.036Z,101885.50
2018-08-28T03:37:44.735Z,101884.68
2018-08-28T03:40:13.674Z,101879.03
2018-08-28T03:42:42.375Z,101879.95
2018-08-28T03:45:11.047Z,101884.44
2018-08-28T03:47:39.728Z,101883.67
2018-08-28T03:50:08.486Z,101880.65
2018-08-28T03:52:37.191Z,101887.22
2018-08-28T03:55:05.912Z,101890.39
2018-08-28T03:57:34.617Z,101889.17
2018-08-28T04:00:03.284Z,101889.63
2018-08-28T04:02:31.968Z,101892.26
2018-08-28T04:05:00.667Z,101889.23
2018-08-28T04:07:29.364Z,101883.98
2018-08-28T04:09:58.045Z,101881.14
2018-08-28T04:12:26.741Z,101885.84
2018-08-28T04:14:55.414Z,101890.64
2018-08-28T04:17:24.108Z,101878.33
2018-08-28T04:19:52.814Z,101881.91
2018-08-28T04:22:21.495Z,101884.98
2018-08-28T04:24:50.225Z,101887.16
2018-08-28T04:27:18.900Z,101882.76
2018-08-28T04:29:47.630Z,101879.73
2018-08-28T04:32:16.351Z,101882.27
2018-08-28T04:34:45.012Z,101879.19
2018-08-28T04:37:13.711Z,101881.36
2018-08-28T04:39:42.386Z,101881.05
2018-08-28T04:42:11.088Z,101891.46
2018-08-28T04:44:40.519Z,101890.64
2018-08-28T04:47:09.261Z,101891.09
2018-08-28T04:49:38.728Z,101890.23
2018-08-28T04:52:07.433Z,101889.39
2018-08-28T04:54:36.113Z,101880.74
2018-08-28T04:57:04.817Z,101878.11
2018-08-28T04:59:33.544Z,101876.41
2018-08-28T05:02:02.276Z,101886.00
2018-08-28T05:04:30.962Z,101878.27
2018-08-28T05:06:59.740Z,101879.52
2018-08-28T05:09:28.405Z,101879.98
2018-08-28T05:11:57.154Z,101880.19
2018-08-28T05:14:25.852Z,101887.00
2018-08-28T05:16:54.692Z,101879.12
2018-08-28T05:19:23.476Z,101887.40
2018-08-28T05:21:52.067Z,101884.84
2018-08-28T05:24:20.884Z,101887.06
2018-08-28T05:26:49.588Z,101895.48
2018-08-28T05:29:18.420Z,101899.42
2018-08-28T05:31:47.229Z,101892.01
2018-08-28T05:34:15.934Z,101886.45
2018-08-28T05:36:44.716Z,101886.70
2018-08-28T05:39:13.425Z,101888.38
2018-08-28T05:41:42.099Z,101891.00
2018-08-28T05:44:14.207Z,101890.94
2018-08-28T05:46:42.950Z,101884.98
2018-08-28T05:49:11.714Z,101889.94
2018-08-28T05:51:40.441Z,101899.98
2018-08-28T05:54:09.123Z,101892.56
2018-08-28T05:56:37.851Z,101901.20
2018-08-28T05:59:06.584Z,101899.34
2018-08-28T06:01:35.309Z,101906.30
2018-08-28T06:04:04.041Z,101910.64
2018-08-28T06:06:32.784Z,101905.85
2018-08-28T06:09:01.468Z,101907.56
2018-08-28T06:11:30.163Z,101916.66
2018-08-28T06:13:58.996Z,101915.81
2018-08-28T06:16:27.680Z,101916.11
2018-08-28T06:18:56.511Z,101915.59
2018-08-28T06:21:25.328Z,101919.91
2018-08-28T06:23:54.017Z,101920.76
2018-08-28T06:26:22.842Z,101914.50
2018-08-28T06:28:51.464Z,101914.34
2018-08-28T06:31:20.165Z,101913.80
2018-08-28T06:33:48.892Z,101909.33
2018-08-28T06:36:17.643Z,101912.45
2018-08-28T06:38:46.514Z,101916.30
2018-08-28T06:41:15.234Z,101910.59
2018-08-28T06:43:43.936Z,101916.30
2018-08-28T06:46:12.644Z,101913.12
2018-08-28T06:48:41.352Z,101910.34
2018-08-28T06:51:10.099Z,101904.17
2018-08-28T06:53:38.848Z,101904.93
2018-08-28T06:56:07.571Z,101905.69
2018-08-28T06:58:36.416Z,101902.55
2018-08-28T07:01:05.287Z,101909.78
2018-08-28T07:03:34.241Z,101905.78
2018-08-28T07:06:03.054Z,101910.88
2018-08-28T07:08:31.794Z,101908.55
2018-08-28T07:11:00.573Z,101904.91
2018-08-28T07:13:29.280Z,101896.94
2018-08-28T07:15:57.976Z,101891.98
2018-08-28T07:18:26.691Z,101896.72
2018-08-28T07:20:55.375Z,101886.95
2018-08-28T07:23:24.067Z,101890.65
2018-08-28T07:25:52.840Z,101898.84
2018-08-28T07:28:21.571Z,101896.14
2018-08-28T07:30:50.486Z,101899.44
2018-08-28T07:33:19.356Z,101902.36
2018-08-28T07:35:48.903Z,101902.30
2018-08-28T07:38:17.721Z,101904.77
2018-08-28T07:40:46.479Z,101908.45
2018-08-28T07:43:15.158Z,101905.57
2018-08-28T07:45:43.933Z,101908.04
2018-08-28T07:48:12.858Z,101910.05
2018-08-28T07:50:41.567Z,101911.89
2018-08-28T07:53:10.335Z,101910.02
2018-08-28T07:55:39.189Z,101911.80
2018-08-28T07:58:07.916Z,101906.44
2018-08-28T08:00:36.672Z,101912.09
2018-08-28T08:03:05.597Z,101900.48
2018-08-28T08:05:41.548Z,101892.23
2018-08-28T08:08:10.517Z,101891.14
2018-08-28T08:10:39.410Z,101887.78
2018-08-28T08:13:08.104Z,101892.48
2018-08-28T08:15:37.047Z,101888.08
2018-08-28T08:18:05.764Z,101886.77
2018-08-28T08:20:35.223Z,101885.53
2018-08-28T08:23:04.234Z,101880.00
2018-08-28T08:25:33.197Z,101879.17
2018-08-28T08:28:03.405Z,101881.92
2018-08-28T08:30:32.524Z,101881.39
2018-08-28T08:33:01.890Z,101880.83
2018-08-28T08:35:30.654Z,101886.39
2018-08-28T08:38:03.053Z,101888.11
2018-08-28T08:40:32.007Z,101896.70
2018-08-28T08:43:00.894Z,101890.58
2018-08-28T08:45:29.755Z,101902.37
2018-08-28T08:47:58.548Z,101900.87
2018-08-28T08:50:27.323Z,101900.03
2018-08-28T08:52:56.125Z,101899.12
2018-08-28T08:55:25.048Z,101897.52
2018-08-28T08:57:53.897Z,101901.92
2018-08-28T09:00:23.008Z,101895.38
2018-08-28T09:02:52.076Z,101899.98
2018-08-28T09:05:20.780Z,101902.08
2018-08-28T09:07:49.737Z,101905.18
2018-08-28T09:10:18.439Z,101899.84
2018-08-28T09:12:48.253Z,101893.71
2018-08-28T09:15:16.956Z,101886.09
2018-08-28T09:17:45.887Z,101896.27
2018-08-28T09:20:14.648Z,101899.05
2018-08-28T09:22:44.162Z,101903.11
2018-08-28T09:25:13.080Z,101900.50
2018-08-28T09:27:41.733Z,101895.22
2018-08-28T09:30:11.821Z,101900.78
2018-08-28T09:32:41.155Z,101903.41
2018-08-28T09:35:10.012Z,101897.64
2018-08-28T09:37:38.744Z,101897.28
2018-08-28T09:40:08.005Z,101888.41
2018-08-28T09:42:36.736Z,101882.60
2018-08-28T09:45:05.532Z,101883.53
2018-08-28T09:47:34.827Z,101878.26
2018-08-28T09:50:04.368Z,101881.28
2018-08-28T09:52:34.510Z,101875.05
2018-08-28T09:55:03.172Z,101871.77
2018-08-28T09:57:32.413Z,101871.86
2018-08-28T10:00:01.386Z,101858.55
2018-08-28T10:02:30.132Z,101859.70
2018-08-28T10:04:58.928Z,101860.14
2018-08-28T10:07:28.368Z,101861.27
2018-08-28T10:09:57.091Z,101854.36
2018-08-28T10:12:25.904Z,101851.34
2018-08-28T10:14:54.772Z,101851.23
2018-08-28T10:17:23.590Z,101854.42
2018-08-28T10:19:52.280Z,101856.86
2018-08-28T10:22:21.138Z,101855.16
2018-08-28T10:24:50.478Z,101859.30
2018-08-28T10:27:19.192Z,101859.64
2018-08-28T10:29:48.061Z,101857.61
2018-08-28T10:32:16.701Z,101861.45
2018-08-28T10:34:46.303Z,101857.62
2018-08-28T10:37:14.984Z,101865.50
2018-08-28T10:39:43.779Z,101867.81
2018-08-28T10:42:13.059Z,101871.97
2018-08-28T10:44:42.356Z,101864.95
2018-08-28T10:47:11.183Z,101862.92
2018-08-28T10:49:39.912Z,101865.09
2018-08-28T10:52:08.632Z,101868.27
2018-08-28T10:54:37.323Z,101863.45
2018-08-28T10:57:05.993Z,101864.69
2018-08-28T10:59:34.734Z,101862.31
2018-08-28T11:02:03.431Z,101855.48
2018-08-28T11:04:32.163Z,101850.37
2018-08-28T11:07:00.822Z,101857.75
2018-08-28T11:09:29.514Z,101849.11
2018-08-28T11:11:58.183Z,101856.84
2018-08-28T11:14:26.857Z,101866.30
2018-08-28T11:16:55.562Z,101858.62
2018-08-28T11:19:24.234Z,101855.69
2018-08-28T11:21:53.340Z,101855.22
2018-08-28T11:24:22.040Z,101853.56
2018-08-28T11:26:51.036Z,101843.89
2018-08-28T11:29:19.900Z,101846.16
2018-08-28T11:31:48.789Z,101846.63
2018-08-28T11:34:17.920Z,101843.25
2018-08-28T11:36:46.733Z,101848.62
2018-08-28T11:39:15.533Z,101847.63
2018-08-28T11:41:44.199Z,101846.91
2018-08-28T11:44:12.869Z,101842.29
2018-08-28T11:46:41.520Z,101840.33
2018-08-28T11:49:10.171Z,101846.53
2018-08-28T11:51:38.851Z,101842.80
2018-08-28T11:54:07.845Z,101846.53
2018-08-28T11:56:37.015Z,101841.57
2018-08-28T11:59:05.783Z,101830.02
2018-08-28T12:01:34.541Z,101822.50
2018-08-28T12:04:03.721Z,101823.29
2018-08-28T12:06:32.415Z,101823.54
2018-08-28T12:09:01.266Z,101822.38
2018-08-28T12:11:30.106Z,101821.32
2018-08-28T12:13:58.825Z,101816.59
2018-08-28T12:16:27.657Z,101816.36
2018-08-28T12:18:56.564Z,101811.73
2018-08-28T12:21:25.284Z,101818.05
2018-08-28T12:23:54.932Z,101820.51
2018-08-28T12:26:23.729Z,101818.52
2018-08-28T12:28:52.476Z,101817.25
2018-08-28T12:31:21.359Z,101814.78
2018-08-28T12:33:50.105Z,101813.61
2018-08-28T12:36:18.843Z,101811.10
2018-08-28T12:38:47.729Z,101805.58
2018-08-28T12:41:16.486Z,101795.94
2018-08-28T12:43:45.437Z,101799.87
2018-08-28T12:46:14.123Z,101799.70
2018-08-28T12:48:42.825Z,101784.49
2018-08-28T12:51:11.862Z,101789.38
2018-08-28T12:53:40.466Z,101790.23
2018-08-28T12:56:09.172Z,101791.09
2018-08-28T12:58:37.923Z,101775.67
2018-08-28T13:01:06.712Z,101771.73
2018-08-28T13:03:35.479Z,101779.14
2018-08-28T13:06:04.297Z,101773.63
2018-08-28T13:08:33.011Z,101763.86
2018-08-28T13:11:01.679Z,101765.52
2018-08-28T13:13:30.385Z,101762.84
2018-08-28T13:15:59.052Z,101760.73
2018-08-28T13:18:27.767Z,101756.47
2018-08-28T13:20:56.424Z,101758.00
2018-08-28T13:23:25.216Z,101755.31
2018-08-28T13:25:53.917Z,101742.09
2018-08-28T13:28:22.632Z,101748.11
2018-08-28T13:30:51.292Z,101749.95
2018-08-28T13:33:19.969Z,101747.08
2018-08-28T13:35:48.692Z,101744.36
2018-08-28T13:38:17.406Z,101737.45
2018-08-28T13:40:46.189Z,101739.80
2018-08-28T13:43:14.793Z,101727.17
2018-08-28T13:45:43.585Z,101724.91
2018-08-28T13:48:12.746Z,101721.63
2018-08-28T13:50:41.404Z,101712.39
2018-08-28T13:53:10.084Z,101705.19
2018-08-28T13:55:38.776Z,101695.23
2018-08-28T13:58:07.458Z,101693.82
2018-08-28T14:00:36.144Z,101688.91
2018-08-28T14:03:04.847Z,101682.66
2018-08-28T14:05:33.519Z,101675.11
2018-08-28T14:08:02.204Z,101669.46
2018-08-28T14:10:30.878Z,101670.09
2018-08-28T14:12:59.563Z,101673.95
2018-08-28T14:15:28.248Z,101659.77
2018-08-28T14:17:56.919Z,101662.91
2018-08-28T14:20:25.605Z,101663.97
2018-08-28T14:22:54.308Z,101669.00
2018-08-28T14:25:23.069Z,101665.78
2018-08-28T14:27:51.852Z,101664.70
2018-08-28T14:30:20.569Z,101664.69
2018-08-28T14:32:49.336Z,101662.59
2018-08-28T14:35:17.977Z,101657.64
2018-08-28T14:37:46.734Z,101652.25
2018-08-28T14:40:15.404Z,101646.80
2018-08-28T14:42:44.215Z,101649.68
2018-08-28T14:45:13.032Z,101643.25
2018-08-28T14:47:41.736Z,101642.41
2018-08-28T14:50:10.464Z,101643.20
2018-08-28T14:52:39.210Z,101646.77
2018-08-28T14:55:07.872Z,101648.91
2018-08-28T14:57:36.572Z,101647.30
2018-08-28T15:00:05.835Z,101653.16
2018-08-28T15:02:34.539Z,101654.88
2018-08-28T15:05:03.229Z,101653.92
2018-08-28T15:07:31.946Z,101645.77
2018-08-28T15:10:00.600Z,101652.76
2018-08-28T15:12:29.295Z,101638.91
2018-08-28T15:14:57.972Z,101630.38
2018-08-28T15:17:26.744Z,101625.41
2018-08-28T15:19:55.404Z,101624.03
2018-08-28T15:22:24.132Z,101616.00
2018-08-28T15:24:52.796Z,101610.89
2018-08-28T15:27:21.538Z,101610.35
2018-08-28T15:29:50.177Z,101604.48
2018-08-28T15:32:18.873Z,101601.46
2018-08-28T15:34:47.580Z,101608.09
2018-08-28T15:37:16.237Z,101611.77
2018-08-28T15:39:44.928Z,101611.75
2018-08-28T15:42:13.651Z,101617.89
2018-08-28T15:44:42.367Z,101622.86
2018-08-28T15:47:11.027Z,101624.19
2018-08-28T15:49:39.719Z,101622.59
2018-08-28T15:52:08.356Z,101618.00
2018-08-28T15:54:37.024Z,101618.73
2018-08-28T15:57:05.945Z,101610.16
2018-08-28T15:59:34.689Z,101610.16
2018-08-28T16:02:03.769Z,101609.22
2018-08-28T16:04:32.540Z,101611.16
2018-08-28T16:07:01.183Z,101610.54
2018-08-28T16:09:29.879Z,101617.83
2018-08-28T16:11:58.612Z,101616.84
2018-08-28T16:14:27.291Z,101619.34
2018-08-28T16:16:55.959Z,101610.52
2018-08-28T16:19:24.636Z,101615.44
2018-08-28T16:21:55.976Z,101607.75
2018-08-28T16:24:24.685Z,101596.83
2018-08-28T16:26:53.999Z,101594.80
2018-08-28T16:29:22.697Z,101595.67
2018-08-28T16:31:51.572Z,101595.07
2018-08-28T16:34:20.224Z,101599.80
2018-08-28T16:36:48.929Z,101600.04
2018-08-28T16:39:17.692Z,101597.27
2018-08-28T16:41:46.359Z,101592.66
2018-08-28T16:44:15.018Z,101594.23
2018-08-28T16:46:43.772Z,101587.46
2018-08-28T16:49:12.636Z,101590.58
2018-08-28T16:51:41.775Z,101592.76
2018-08-28T16:54:10.450Z,101586.37
2018-08-28T16:56:39.245Z,101589.48
2018-08-28T16:59:07.892Z,101588.89
2018-08-28T17:01:36.921Z,101588.02
2018-08-28T17:04:05.619Z,101579.70
2018-08-28T17:06:34.352Z,101583.10
2018-08-28T17:09:03.264Z,101582.13
2018-08-28T17:11:31.938Z,101573.94
2018-08-28T17:14:00.625Z,101578.03
2018-08-28T17:16:29.308Z,101587.27
2018-08-28T17:18:58.096Z,101590.56
2018-08-28T17:21:26.827Z,101590.25
2018-08-28T17:23:55.504Z,101582.50
2018-08-28T17:26:24.288Z,101585.33
2018-08-28T17:28:52.999Z,101581.55
2018-08-28T17:31:21.761Z,101576.00
2018-08-28T17:33:50.448Z,101581.08
2018-08-28T17:36:19.108Z,101573.78
2018-08-28T17:38:47.777Z,101577.74
2018-08-28T17:41:16.493Z,101570.54
2018-08-28T17:43:45.196Z,101575.61
2018-08-28T17:46:13.934Z,101569.73
2018-08-28T17:48:42.631Z,101571.64
2018-08-28T17:51:11.316Z,101569.85
2018-08-28T17:53:40.074Z,101566.83
2018-08-28T17:56:08.762Z,101569.44
2018-08-28T17:58:37.446Z,101555.72
2018-08-28T18:01:06.329Z,101556.44
2018-08-28T18:03:35.012Z,101565.05
2018-08-28T18:06:03.713Z,101562.25
2018-08-28T18:08:32.423Z,101564.38
2018-08-28T18:11:01.090Z,101569.15
2018-08-28T18:13:29.840Z,101569.36
2018-08-28T18:15:58.627Z,101569.58
2018-08-28T18:18:27.327Z,101566.42
2018-08-28T18:20:56.031Z,101568.55
2018-08-28T18:23:24.752Z,101573.31
2018-08-28T18:25:53.444Z,101570.50
2018-08-28T18:28:22.141Z,101567.80
2018-08-28T18:30:50.807Z,101566.44
2018-08-28T18:33:19.515Z,101567.20
2018-08-28T18:35:48.234Z,101567.06
2018-08-28T18:38:16.983Z,101564.25
2018-08-28T18:40:45.717Z,101569.39
2018-08-28T18:43:14.394Z,101568.63
2018-08-28T18:45:43.607Z,101569.80
2018-08-28T18:48:12.322Z,101564.84
2018-08-28T18:50:41.055Z,101570.33
2018-08-28T18:53:09.766Z,101575.55
2018-08-28T18:55:38.524Z,101575.02
2018-08-28T18:58:07.724Z,101571.81
2018-08-28T19:00:36.461Z,101576.09
2018-08-28T19:03:05.289Z,101584.33
2018-08-28T19:05:34.006Z,101584.61
2018-08-28T19:08:02.730Z,101588.89
2018-08-28T19:10:31.495Z,101587.41
2018-08-28T19:13:00.429Z,101588.08
2018-08-28T19:15:29.392Z,101587.90
2018-08-28T19:17:58.117Z,101589.53
2018-08-28T19:20:27.053Z,101597.17
2018-08-28T19:22:55.867Z,101596.90
2018-08-28T19:25:24.803Z,101594.73
2018-08-28T19:27:53.720Z,101594.46
2018-08-28T19:30:22.452Z,101591.17
2018-08-28T19:32:51.223Z,101599.19
2018-08-28T19:35:20.023Z,101589.47
2018-08-28T19:37:48.820Z,101592.03
2018-08-28T19:40:17.596Z,101599.16
2018-08-28T19:42:46.382Z,101599.00
2018-08-28T19:45:15.261Z,101588.50
2018-08-28T19:47:44.153Z,101604.00
2018-08-28T19:50:13.000Z,101588.96
2018-08-28T19:52:41.808Z,101599.31
2018-08-28T19:55:10.692Z,101596.75
2018-08-28T19:57:39.500Z,101598.55
2018-08-28T20:00:09.729Z,101591.13
2018-08-28T20:02:38.664Z,101597.22
2018-08-28T20:05:07.646Z,101596.02
2018-08-28T20:07:36.446Z,101601.37
2018-08-28T20:10:05.489Z,101598.84
2018-08-28T20:12:34.468Z,101600.74
2018-08-28T20:15:04.766Z,101603.95
2018-08-28T20:17:33.518Z,101593.42
2018-08-28T20:20:02.568Z,101598.30
2018-08-28T20:22:31.415Z,101595.28
2018-08-28T20:25:00.334Z,101596.59
2018-08-28T20:27:29.241Z,101593.61
2018-08-28T20:29:58.032Z,101595.86
2018-08-28T20:32:27.994Z,101589.73
2018-08-28T20:34:56.865Z,101590.78
2018-08-28T20:37:25.986Z,101598.69
2018-08-28T20:39:54.911Z,101592.67
2018-08-28T20:42:23.978Z,101588.45
2018-08-28T20:44:53.049Z,101586.75
2018-08-28T20:47:21.928Z,101591.16
2018-08-28T20:49:50.744Z,101595.61
2018-08-28T20:52:19.759Z,101596.08
2018-08-28T20:54:48.728Z,101589.22
2018-08-28T20:57:17.669Z,101590.53
2018-08-28T20:59:46.455Z,101583.36
2018-08-28T21:02:15.219Z,101585.92
2018-08-28T21:04:44.047Z,101574.83
2018-08-28T21:07:12.880Z,101577.08
2018-08-28T21:09:41.671Z,101583.48
2018-08-28T21:12:10.494Z,101571.45
2018-08-28T21:14:39.309Z,101571.34
2018-08-28T21:17:08.128Z,101567.51
2018-08-28T21:19:36.928Z,101564.95
2018-08-28T21:22:05.641Z,101559.30
2018-08-28T21:24:34.334Z,101564.10
2018-08-28T21:27:03.069Z,101566.00
2018-08-28T21:29:31.905Z,101569.48
2018-08-28T21:32:00.607Z,101570.33
2018-08-28T21:34:29.345Z,101566.92
2018-08-28T21:36:58.063Z,101565.61
2018-08-28T21:39:26.803Z,101562.63
2018-08-28T21:41:55.698Z,101564.52
2018-08-28T21:44:24.437Z,101568.93
2018-08-28T21:46:53.134Z,101568.46
2018-08-28T21:49:21.793Z,101570.71
2018-08-28T21:51:50.492Z,101569.97
2018-08-28T21:54:19.188Z,101579.55
2018-08-28T21:56:47.900Z,101573.33
2018-08-28T21:59:16.638Z,101575.61
2018-08-28T22:01:45.335Z,101582.55
2018-08-28T22:04:14.043Z,101583.05
2018-08-28T22:06:47.709Z,101585.68
2018-08-28T22:09:16.433Z,101587.08
2018-08-28T22:11:45.122Z,101581.64
2018-08-28T22:14:13.805Z,101584.62
2018-08-28T22:16:42.467Z,101587.27
2018-08-28T22:19:11.144Z,101591.32
2018-08-28T22:21:39.828Z,101586.05
2018-08-28T22:24:08.488Z,101585.31
2018-08-28T22:26:37.204Z,101582.40
2018-08-28T22:29:05.900Z,101585.78
2018-08-28T22:31:34.657Z,101579.20
2018-08-28T22:34:03.388Z,101569.31
2018-08-28T22:36:32.127Z,101579.94
2018-08-28T22:39:00.836Z,101567.34
2018-08-28T22:41:29.504Z,101569.98
2018-08-28T22:43:58.193Z,101564.33
2018-08-28T22:46:26.874Z,101568.66
2018-08-28T22:48:56.174Z,101542.83
2018-08-28T22:51:24.892Z,101549.30
2018-08-28T22:53:53.596Z,101549.84
2018-08-28T22:56:22.256Z,101547.22
2018-08-28T22:58:50.923Z,101548.17
2018-08-28T23:01:19.635Z,101540.82
2018-08-28T23:03:48.325Z,101535.00
2018-08-28T23:06:17.024Z,101546.27
2018-08-28T23:08:45.697Z,101538.02
2018-08-28T23:11:14.369Z,101534.54
2018-08-28T23:13:43.028Z,101532.94
2018-08-28T23:16:11.689Z,101528.53
2018-08-28T23:18:40.380Z,101520.90
2018-08-28T23:21:09.064Z,101522.03
2018-08-28T23:23:37.771Z,101514.43
2018-08-28T23:26:06.520Z,101529.92
2018-08-28T23:28:35.205Z,101524.66
2018-08-28T23:31:03.908Z,101520.82
2018-08-28T23:33:32.564Z,101520.36
2018-08-28T23:36:01.225Z,101517.80
2018-08-28T23:38:29.908Z,101522.22
2018-08-28T23:40:58.580Z,101524.57
2018-08-28T23:43:27.270Z,101526.92
2018-08-28T23:45:55.923Z,101520.34
2018-08-28T23:48:24.586Z,101515.77
2018-08-28T23:50:53.260Z,101516.05
2018-08-28T23:53:21.939Z,101513.02
2018-08-28T23:55:50.595Z,101515.27
2018-08-28T23:58:19.291Z,101515.84
